sensor_id;sensor_type;location;lat;lon;timestamp;temperature;humidity
71396;DHT22;59888;55.814;37.132;2023-03-14T00:01:55;-1.16;59.27
71396;DHT22;59888;55.814;37.132;2023-03-14T00:04:21;-1.16;59.32
71396;DHT22;59888;55.814;37.132;2023-03-14T00:06:46;-1.16;59.38
71396;DHT22;59888;55.814;37.132;2023-03-14T00:09:13;-1.11;59.43
71396;DHT22;59888;55.814;37.132;2023-03-14T00:11:39;-1.08;59.35
71396;DHT22;59888;55.814;37.132;2023-03-14T00:14:04;-1.10;59.37
71396;DHT22;59888;55.814;37.132;2023-03-14T00:16:30;-1.09;59.43
71396;DHT22;59888;55.814;37.132;2023-03-14T00:18:56;-1.06;59.48
71396;DHT22;59888;55.814;37.132;2023-03-14T00:21:23;-1.04;59.56
71396;DHT22;59888;55.814;37.132;2023-03-14T00:23:50;-1.02;59.67
71396;DHT22;59888;55.814;37.132;2023-03-14T00:26:16;-0.99;59.56
71396;DHT22;59888;55.814;37.132;2023-03-14T00:28:42;-1.01;59.86
71396;DHT22;59888;55.814;37.132;2023-03-14T00:31:09;-1.00;59.86
71396;DHT22;59888;55.814;37.132;2023-03-14T00:33:35;-0.98;60.04
71396;DHT22;59888;55.814;37.132;2023-03-14T00:36:03;-0.95;60.28
71396;DHT22;59888;55.814;37.132;2023-03-14T00:38:30;-0.90;60.22
71396;DHT22;59888;55.814;37.132;2023-03-14T00:40:57;-0.89;60.47
71396;DHT22;59888;55.814;37.132;2023-03-14T00:43:22;-0.85;60.48
71396;DHT22;59888;55.814;37.132;2023-03-14T00:45:49;-0.83;60.53
71396;DHT22;59888;55.814;37.132;2023-03-14T00:48:15;-0.82;60.60
71396;DHT22;59888;55.814;37.132;2023-03-14T00:50:41;-0.79;60.42
71396;DHT22;59888;55.814;37.132;2023-03-14T00:53:07;-0.82;60.86
71396;DHT22;59888;55.814;37.132;2023-03-14T00:55:36;-0.79;60.80
71396;DHT22;59888;55.814;37.132;2023-03-14T00:58:01;-0.77;60.96
71396;DHT22;59888;55.814;37.132;2023-03-14T01:00:27;-0.76;61.41
71396;DHT22;59888;55.814;37.132;2023-03-14T01:02:53;-0.71;61.35
71396;DHT22;59888;55.814;37.132;2023-03-14T01:05:18;-0.69;61.34
71396;DHT22;59888;55.814;37.132;2023-03-14T01:07:44;-0.67;61.62
71396;DHT22;59888;55.814;37.132;2023-03-14T01:10:10;-0.61;61.78
71396;DHT22;59888;55.814;37.132;2023-03-14T01:12:37;-0.57;61.67
71396;DHT22;59888;55.814;37.132;2023-03-14T01:15:03;-0.58;61.79
71396;DHT22;59888;55.814;37.132;2023-03-14T01:17:29;-0.61;61.86
71396;DHT22;59888;55.814;37.132;2023-03-14T01:19:56;-0.60;62.27
71396;DHT22;59888;55.814;37.132;2023-03-14T01:22:22;-0.58;62.67
71396;DHT22;59888;55.814;37.132;2023-03-14T01:24:47;-0.56;62.35
71396;DHT22;59888;55.814;37.132;2023-03-14T01:27:13;-0.55;62.31
71396;DHT22;59888;55.814;37.132;2023-03-14T01:29:39;-0.54;62.75
71396;DHT22;59888;55.814;37.132;2023-03-14T01:32:05;-0.52;62.93
71396;DHT22;59888;55.814;37.132;2023-03-14T01:34:30;-0.49;63.45
71396;DHT22;59888;55.814;37.132;2023-03-14T01:36:56;-0.49;63.85
71396;DHT22;59888;55.814;37.132;2023-03-14T01:39:22;-0.46;64.63
71396;DHT22;59888;55.814;37.132;2023-03-14T01:41:47;-0.44;64.84
71396;DHT22;59888;55.814;37.132;2023-03-14T01:44:13;-0.40;64.14
71396;DHT22;59888;55.814;37.132;2023-03-14T01:46:40;-0.43;64.91
71396;DHT22;59888;55.814;37.132;2023-03-14T01:56:53;-0.30;65.07
71396;DHT22;59888;55.814;37.132;2023-03-14T01:59:25;-0.22;65.11
71396;DHT22;59888;55.814;37.132;2023-03-14T02:01:51;-0.13;64.78
71396;DHT22;59888;55.814;37.132;2023-03-14T02:04:17;-0.10;64.46
71396;DHT22;59888;55.814;37.132;2023-03-14T02:06:48;-0.09;64.69
71396;DHT22;59888;55.814;37.132;2023-03-14T02:09:16;-0.07;64.68
71396;DHT22;59888;55.814;37.132;2023-03-14T02:11:43;-0.03;64.69
71396;DHT22;59888;55.814;37.132;2023-03-14T02:14:32;0.02;64.98
71396;DHT22;59888;55.814;37.132;2023-03-14T02:17:17;0.05;65.20
71396;DHT22;59888;55.814;37.132;2023-03-14T02:22:38;0.09;64.54
71396;DHT22;59888;55.814;37.132;2023-03-14T02:27:33;0.13;64.72
71396;DHT22;59888;55.814;37.132;2023-03-14T02:30:00;0.13;66.62
71396;DHT22;59888;55.814;37.132;2023-03-14T02:32:32;0.14;66.52
71396;DHT22;59888;55.814;37.132;2023-03-14T02:34:59;0.13;66.58
71396;DHT22;59888;55.814;37.132;2023-03-14T02:37:33;0.16;66.83
71396;DHT22;59888;55.814;37.132;2023-03-14T02:40:00;0.16;67.85
71396;DHT22;59888;55.814;37.132;2023-03-14T02:42:25;0.19;67.08
71396;DHT22;59888;55.814;37.132;2023-03-14T02:44:53;0.21;67.38
71396;DHT22;59888;55.814;37.132;2023-03-14T02:47:27;0.25;67.20
71396;DHT22;59888;55.814;37.132;2023-03-14T02:49:53;0.28;67.49
71396;DHT22;59888;55.814;37.132;2023-03-14T02:52:25;0.33;67.75
71396;DHT22;59888;55.814;37.132;2023-03-14T02:54:50;0.39;66.79
71396;DHT22;59888;55.814;37.132;2023-03-14T02:57:16;0.42;66.16
71396;DHT22;59888;55.814;37.132;2023-03-14T02:59:42;0.45;66.91
71396;DHT22;59888;55.814;37.132;2023-03-14T03:02:13;0.49;66.93
71396;DHT22;59888;55.814;37.132;2023-03-14T03:04:38;0.57;65.70
71396;DHT22;59888;55.814;37.132;2023-03-14T03:07:04;0.59;67.08
71396;DHT22;59888;55.814;37.132;2023-03-14T03:09:30;0.63;66.85
71396;DHT22;59888;55.814;37.132;2023-03-14T03:11:55;0.71;66.46
71396;DHT22;59888;55.814;37.132;2023-03-14T03:14:23;0.74;65.23
71396;DHT22;59888;55.814;37.132;2023-03-14T03:16:49;0.75;66.38
71396;DHT22;59888;55.814;37.132;2023-03-14T03:19:15;0.77;66.84
71396;DHT22;59888;55.814;37.132;2023-03-14T03:21:43;0.77;68.66
71396;DHT22;59888;55.814;37.132;2023-03-14T03:24:11;0.84;67.64
71396;DHT22;59888;55.814;37.132;2023-03-14T03:26:36;0.88;68.44
71396;DHT22;59888;55.814;37.132;2023-03-14T03:29:06;0.88;68.67
71396;DHT22;59888;55.814;37.132;2023-03-14T03:31:32;0.90;68.36
71396;DHT22;59888;55.814;37.132;2023-03-14T03:33:57;0.95;67.20
71396;DHT22;59888;55.814;37.132;2023-03-14T03:36:24;0.98;66.69
71396;DHT22;59888;55.814;37.132;2023-03-14T03:38:50;1.01;66.68
71396;DHT22;59888;55.814;37.132;2023-03-14T03:41:16;1.05;67.65
71396;DHT22;59888;55.814;37.132;2023-03-14T03:43:41;1.08;66.62
71396;DHT22;59888;55.814;37.132;2023-03-14T03:46:09;1.06;67.55
71396;DHT22;59888;55.814;37.132;2023-03-14T03:48:35;1.11;67.74
71396;DHT22;59888;55.814;37.132;2023-03-14T03:51:03;1.12;66.92
71396;DHT22;59888;55.814;37.132;2023-03-14T03:53:30;1.17;66.18
71396;DHT22;59888;55.814;37.132;2023-03-14T03:55:55;1.12;67.65
71396;DHT22;59888;55.814;37.132;2023-03-14T03:58:22;1.12;68.81
71396;DHT22;59888;55.814;37.132;2023-03-14T04:00:47;1.18;67.62
71396;DHT22;59888;55.814;37.132;2023-03-14T04:03:13;1.19;67.68
71396;DHT22;59888;55.814;37.132;2023-03-14T04:05:38;1.22;67.39
71396;DHT22;59888;55.814;37.132;2023-03-14T04:08:09;1.26;67.36
71396;DHT22;59888;55.814;37.132;2023-03-14T04:10:35;1.29;66.69
71396;DHT22;59888;55.814;37.132;2023-03-14T04:13:14;1.33;67.84
71396;DHT22;59888;55.814;37.132;2023-03-14T04:15:42;1.38;67.49
71396;DHT22;59888;55.814;37.132;2023-03-14T04:18:17;1.40;68.78
71396;DHT22;59888;55.814;37.132;2023-03-14T04:20:43;1.45;68.72
71396;DHT22;59888;55.814;37.132;2023-03-14T04:23:10;1.50;68.20
71396;DHT22;59888;55.814;37.132;2023-03-14T04:25:36;1.55;67.54
71396;DHT22;59888;55.814;37.132;2023-03-14T04:28:04;1.58;67.98
71396;DHT22;59888;55.814;37.132;2023-03-14T04:30:30;1.63;67.85
71396;DHT22;59888;55.814;37.132;2023-03-14T04:33:09;1.71;67.72
71396;DHT22;59888;55.814;37.132;2023-03-14T04:35:43;1.77;67.08
71396;DHT22;59888;55.814;37.132;2023-03-14T04:38:12;1.82;67.78
71396;DHT22;59888;55.814;37.132;2023-03-14T04:40:40;1.88;67.20
71396;DHT22;59888;55.814;37.132;2023-03-14T04:43:07;1.95;67.43
71396;DHT22;59888;55.814;37.132;2023-03-14T04:45:33;1.95;67.75
71396;DHT22;59888;55.814;37.132;2023-03-14T04:48:01;2.02;67.17
71396;DHT22;59888;55.814;37.132;2023-03-14T04:50:27;2.08;68.18
71396;DHT22;59888;55.814;37.132;2023-03-14T04:52:52;2.11;68.80
71396;DHT22;59888;55.814;37.132;2023-03-14T04:55:18;2.14;68.19
71396;DHT22;59888;55.814;37.132;2023-03-14T04:57:44;2.20;68.49
71396;DHT22;59888;55.814;37.132;2023-03-14T05:00:10;2.22;68.94
71396;DHT22;59888;55.814;37.132;2023-03-14T05:02:56;2.25;68.78
71396;DHT22;59888;55.814;37.132;2023-03-14T05:05:40;2.30;69.29
71396;DHT22;59888;55.814;37.132;2023-03-14T05:08:06;2.37;67.29
71396;DHT22;59888;55.814;37.132;2023-03-14T05:11:01;2.39;68.71
71396;DHT22;59888;55.814;37.132;2023-03-14T05:13:39;2.41;68.80
71396;DHT22;59888;55.814;37.132;2023-03-14T05:16:40;2.42;67.91
71396;DHT22;59888;55.814;37.132;2023-03-14T05:19:26;2.47;68.31
71396;DHT22;59888;55.814;37.132;2023-03-14T05:22:21;2.57;67.88
71396;DHT22;59888;55.814;37.132;2023-03-14T05:25:06;2.60;67.56
71396;DHT22;59888;55.814;37.132;2023-03-14T05:27:52;2.65;67.18
71396;DHT22;59888;55.814;37.132;2023-03-14T05:30:30;2.66;67.89
71396;DHT22;59888;55.814;37.132;2023-03-14T05:33:06;2.74;67.02
71396;DHT22;59888;55.814;37.132;2023-03-14T05:35:43;2.78;67.36
71396;DHT22;59888;55.814;37.132;2023-03-14T05:38:17;2.80;67.75
71396;DHT22;59888;55.814;37.132;2023-03-14T05:40:58;2.84;67.83
71396;DHT22;59888;55.814;37.132;2023-03-14T05:43:43;2.90;68.00
71396;DHT22;59888;55.814;37.132;2023-03-14T05:46:17;2.97;67.17
71396;DHT22;59888;55.814;37.132;2023-03-14T05:49:01;3.03;67.30
71396;DHT22;59888;55.814;37.132;2023-03-14T05:51:53;3.14;67.42
71396;DHT22;59888;55.814;37.132;2023-03-14T05:54:34;3.24;66.88
71396;DHT22;59888;55.814;37.132;2023-03-14T05:57:26;3.30;66.47
71396;DHT22;59888;55.814;37.132;2023-03-14T06:00:09;3.32;67.37
71396;DHT22;59888;55.814;37.132;2023-03-14T06:02:39;3.33;67.05
71396;DHT22;59888;55.814;37.132;2023-03-14T06:05:14;3.40;66.46
71396;DHT22;59888;55.814;37.132;2023-03-14T06:07:40;3.46;65.99
71396;DHT22;59888;55.814;37.132;2023-03-14T06:10:06;3.48;66.77
71396;DHT22;59888;55.814;37.132;2023-03-14T06:12:32;3.52;66.64
71396;DHT22;59888;55.814;37.132;2023-03-14T06:14:58;3.56;66.78
71396;DHT22;59888;55.814;37.132;2023-03-14T06:17:24;3.59;66.55
71396;DHT22;59888;55.814;37.132;2023-03-14T06:20:00;3.61;66.62
71396;DHT22;59888;55.814;37.132;2023-03-14T06:22:27;3.67;65.69
71396;DHT22;59888;55.814;37.132;2023-03-14T06:24:53;3.68;66.45
71396;DHT22;59888;55.814;37.132;2023-03-14T06:27:20;3.77;66.38
71396;DHT22;59888;55.814;37.132;2023-03-14T06:29:47;3.83;65.84
71396;DHT22;59888;55.814;37.132;2023-03-14T06:32:13;3.83;66.11
71396;DHT22;59888;55.814;37.132;2023-03-14T06:34:39;3.83;66.50
71396;DHT22;59888;55.814;37.132;2023-03-14T06:37:06;3.91;65.91
71396;DHT22;59888;55.814;37.132;2023-03-14T06:39:32;3.95;66.33
71396;DHT22;59888;55.814;37.132;2023-03-14T06:42:07;4.03;65.80
71396;DHT22;59888;55.814;37.132;2023-03-14T06:44:34;4.03;66.59
71396;DHT22;59888;55.814;37.132;2023-03-14T06:47:00;4.12;66.76
71396;DHT22;59888;55.814;37.132;2023-03-14T06:49:26;4.18;66.16
71396;DHT22;59888;55.814;37.132;2023-03-14T06:51:53;4.27;66.02
71396;DHT22;59888;55.814;37.132;2023-03-14T06:54:19;4.31;65.69
71396;DHT22;59888;55.814;37.132;2023-03-14T06:56:46;4.28;66.91
71396;DHT22;59888;55.814;37.132;2023-03-14T06:59:12;4.36;65.64
71396;DHT22;59888;55.814;37.132;2023-03-14T07:01:39;4.39;65.93
71396;DHT22;59888;55.814;37.132;2023-03-14T07:04:09;4.44;65.72
71396;DHT22;59888;55.814;37.132;2023-03-14T07:06:42;4.46;65.95
71396;DHT22;59888;55.814;37.132;2023-03-14T07:09:10;4.51;65.61
71396;DHT22;59888;55.814;37.132;2023-03-14T07:11:39;4.51;65.99
71396;DHT22;59888;55.814;37.132;2023-03-14T07:14:05;4.62;65.51
71396;DHT22;59888;55.814;37.132;2023-03-14T07:16:31;4.67;65.43
71396;DHT22;59888;55.814;37.132;2023-03-14T07:18:58;4.71;65.46
71396;DHT22;59888;55.814;37.132;2023-03-14T07:21:24;4.78;65.17
71396;DHT22;59888;55.814;37.132;2023-03-14T07:23:50;4.78;65.04
71396;DHT22;59888;55.814;37.132;2023-03-14T07:26:17;4.78;65.12
71396;DHT22;59888;55.814;37.132;2023-03-14T07:28:48;4.82;65.20
71396;DHT22;59888;55.814;37.132;2023-03-14T07:31:17;4.87;65.12
71396;DHT22;59888;55.814;37.132;2023-03-14T07:33:43;4.93;65.20
71396;DHT22;59888;55.814;37.132;2023-03-14T07:36:08;5.05;64.95
71396;DHT22;59888;55.814;37.132;2023-03-14T07:38:39;5.07;64.60
71396;DHT22;59888;55.814;37.132;2023-03-14T07:41:08;5.10;64.36
71396;DHT22;59888;55.814;37.132;2023-03-14T07:43:39;5.08;64.36
71396;DHT22;59888;55.814;37.132;2023-03-14T07:46:08;5.12;64.37
71396;DHT22;59888;55.814;37.132;2023-03-14T07:48:36;5.12;64.35
71396;DHT22;59888;55.814;37.132;2023-03-14T07:51:02;5.13;64.13
71396;DHT22;59888;55.814;37.132;2023-03-14T07:53:27;5.17;63.92
71396;DHT22;59888;55.814;37.132;2023-03-14T07:55:53;5.18;63.74
71396;DHT22;59888;55.814;37.132;2023-03-14T07:58:19;5.22;63.79
71396;DHT22;59888;55.814;37.132;2023-03-14T08:00:47;5.26;63.58
71396;DHT22;59888;55.814;37.132;2023-03-14T08:03:12;5.28;63.53
71396;DHT22;59888;55.814;37.132;2023-03-14T08:05:38;5.28;63.61
71396;DHT22;59888;55.814;37.132;2023-03-14T08:08:04;5.34;63.65
71396;DHT22;59888;55.814;37.132;2023-03-14T08:10:30;5.30;63.50
71396;DHT22;59888;55.814;37.132;2023-03-14T08:12:57;5.26;63.66
71396;DHT22;59888;55.814;37.132;2023-03-14T08:15:23;5.25;63.92
71396;DHT22;59888;55.814;37.132;2023-03-14T08:17:54;5.26;63.89
71396;DHT22;59888;55.814;37.132;2023-03-14T08:20:21;5.23;63.75
71396;DHT22;59888;55.814;37.132;2023-03-14T08:22:47;5.23;63.98
71396;DHT22;59888;55.814;37.132;2023-03-14T08:25:13;5.27;63.88
71396;DHT22;59888;55.814;37.132;2023-03-14T08:27:38;5.33;63.68
71396;DHT22;59888;55.814;37.132;2023-03-14T08:30:05;5.37;63.65
71396;DHT22;59888;55.814;37.132;2023-03-14T08:32:31;5.38;63.40
71396;DHT22;59888;55.814;37.132;2023-03-14T08:34:57;5.49;63.50
71396;DHT22;59888;55.814;37.132;2023-03-14T08:37:23;5.60;63.24
71396;DHT22;59888;55.814;37.132;2023-03-14T08:39:52;5.65;63.10
71396;DHT22;59888;55.814;37.132;2023-03-14T08:42:18;5.68;62.82
71396;DHT22;59888;55.814;37.132;2023-03-14T08:44:44;5.72;62.60
71396;DHT22;59888;55.814;37.132;2023-03-14T08:47:09;5.75;62.52
71396;DHT22;59888;55.814;37.132;2023-03-14T08:49:35;5.80;62.32
71396;DHT22;59888;55.814;37.132;2023-03-14T08:52:02;5.87;62.00
71396;DHT22;59888;55.814;37.132;2023-03-14T08:54:28;5.94;61.88
71396;DHT22;59888;55.814;37.132;2023-03-14T08:56:54;6.01;62.07
71396;DHT22;59888;55.814;37.132;2023-03-14T08:59:20;5.99;61.49
71396;DHT22;59888;55.814;37.132;2023-03-14T09:01:46;6.12;61.49
71396;DHT22;59888;55.814;37.132;2023-03-14T09:04:11;6.19;61.34
71396;DHT22;59888;55.814;37.132;2023-03-14T09:06:37;6.24;60.73
71396;DHT22;59888;55.814;37.132;2023-03-14T09:09:02;6.37;60.63
71396;DHT22;59888;55.814;37.132;2023-03-14T09:11:28;6.36;60.07
71396;DHT22;59888;55.814;37.132;2023-03-14T09:13:54;6.42;61.03
71396;DHT22;59888;55.814;37.132;2023-03-14T09:16:20;6.49;60.68
71396;DHT22;59888;55.814;37.132;2023-03-14T09:18:46;6.44;60.22
71396;DHT22;59888;55.814;37.132;2023-03-14T09:21:11;6.41;60.25
71396;DHT22;59888;55.814;37.132;2023-03-14T09:23:37;6.35;60.22
71396;DHT22;59888;55.814;37.132;2023-03-14T09:26:04;6.29;59.96
71396;DHT22;59888;55.814;37.132;2023-03-14T09:28:30;6.25;60.24
71396;DHT22;59888;55.814;37.132;2023-03-14T09:30:55;6.21;60.15
71396;DHT22;59888;55.814;37.132;2023-03-14T09:33:21;6.20;60.20
71396;DHT22;59888;55.814;37.132;2023-03-14T09:35:47;6.14;60.34
71396;DHT22;59888;55.814;37.132;2023-03-14T09:38:13;6.09;60.22
71396;DHT22;59888;55.814;37.132;2023-03-14T09:40:40;6.05;60.34
71396;DHT22;59888;55.814;37.132;2023-03-14T09:43:08;6.06;60.46
71396;DHT22;59888;55.814;37.132;2023-03-14T09:45:36;6.04;60.42
71396;DHT22;59888;55.814;37.132;2023-03-14T09:48:02;6.06;60.61
71396;DHT22;59888;55.814;37.132;2023-03-14T09:50:39;6.09;60.83
71396;DHT22;59888;55.814;37.132;2023-03-14T09:53:08;6.07;60.96
71396;DHT22;59888;55.814;37.132;2023-03-14T09:55:34;6.01;61.09
71396;DHT22;59888;55.814;37.132;2023-03-14T09:58:02;6.08;61.39
71396;DHT22;59888;55.814;37.132;2023-03-14T10:00:29;6.09;61.73
71396;DHT22;59888;55.814;37.132;2023-03-14T10:02:56;6.19;61.90
71396;DHT22;59888;55.814;37.132;2023-03-14T10:05:25;6.29;61.83
71396;DHT22;59888;55.814;37.132;2023-03-14T10:07:52;6.28;61.87
71396;DHT22;59888;55.814;37.132;2023-03-14T10:10:21;6.28;61.98
71396;DHT22;59888;55.814;37.132;2023-03-14T10:12:54;6.30;62.04
71396;DHT22;59888;55.814;37.132;2023-03-14T10:15:25;6.34;62.08
71396;DHT22;59888;55.814;37.132;2023-03-14T10:17:51;6.37;61.94
71396;DHT22;59888;55.814;37.132;2023-03-14T10:23:02;6.34;61.99
71396;DHT22;59888;55.814;37.132;2023-03-14T10:25:29;6.39;62.05
71396;DHT22;59888;55.814;37.132;2023-03-14T10:27:55;6.41;61.89
71396;DHT22;59888;55.814;37.132;2023-03-14T10:33:07;6.57;61.51
71396;DHT22;59888;55.814;37.132;2023-03-14T10:35:33;6.58;61.54
71396;DHT22;59888;55.814;37.132;2023-03-14T10:38:03;6.64;61.38
71396;DHT22;59888;55.814;37.132;2023-03-14T10:40:38;6.70;61.41
71396;DHT22;59888;55.814;37.132;2023-03-14T10:43:05;6.73;61.09
71396;DHT22;59888;55.814;37.132;2023-03-14T10:45:35;6.72;60.90
71396;DHT22;59888;55.814;37.132;2023-03-14T10:48:44;6.78;61.00
71396;DHT22;59888;55.814;37.132;2023-03-14T10:50:57;6.81;60.75
71396;DHT22;59888;55.814;37.132;2023-03-14T10:53:27;6.88;60.61
71396;DHT22;59888;55.814;37.132;2023-03-14T10:55:57;6.87;60.47
71396;DHT22;59888;55.814;37.132;2023-03-14T10:58:28;6.88;60.50
71396;DHT22;59888;55.814;37.132;2023-03-14T11:03:45;6.91;59.96
71396;DHT22;59888;55.814;37.132;2023-03-14T11:06:18;6.88;59.38
71396;DHT22;59888;55.814;37.132;2023-03-14T11:08:46;6.91;60.31
71396;DHT22;59888;55.814;37.132;2023-03-14T11:11:22;6.94;59.28
71396;DHT22;59888;55.814;37.132;2023-03-14T11:21:18;7.25;58.24
71396;DHT22;59888;55.814;37.132;2023-03-14T11:26:32;7.42;58.12
71396;DHT22;59888;55.814;37.132;2023-03-14T11:29:18;7.50;58.09
71396;DHT22;59888;55.814;37.132;2023-03-14T11:31:45;7.54;58.06
71396;DHT22;59888;55.814;37.132;2023-03-14T11:36:46;7.46;57.70
71396;DHT22;59888;55.814;37.132;2023-03-14T11:39:15;7.40;57.35
71396;DHT22;59888;55.814;37.132;2023-03-14T11:41:42;7.38;57.22
71396;DHT22;59888;55.814;37.132;2023-03-14T11:44:19;7.43;56.74
71396;DHT22;59888;55.814;37.132;2023-03-14T11:51:44;7.43;57.10
71396;DHT22;59888;55.814;37.132;2023-03-14T11:56:44;7.34;56.45
71396;DHT22;59888;55.814;37.132;2023-03-14T11:59:16;7.37;56.31
71396;DHT22;59888;55.814;37.132;2023-03-14T12:02:03;7.32;55.98
71396;DHT22;59888;55.814;37.132;2023-03-14T12:07:12;7.34;56.56
71396;DHT22;59888;55.814;37.132;2023-03-14T12:09:38;7.38;56.50
71396;DHT22;59888;55.814;37.132;2023-03-14T12:12:04;7.39;56.76
71396;DHT22;59888;55.814;37.132;2023-03-14T12:16:57;7.31;56.14
71396;DHT22;59888;55.814;37.132;2023-03-14T12:22:13;7.30;56.35
71396;DHT22;59888;55.814;37.132;2023-03-14T12:24:36;7.26;55.88
71396;DHT22;59888;55.814;37.132;2023-03-14T12:27:03;7.23;55.87
71396;DHT22;59888;55.814;37.132;2023-03-14T12:29:29;7.22;55.83
71396;DHT22;59888;55.814;37.132;2023-03-14T12:34:39;7.26;55.42
71396;DHT22;59888;55.814;37.132;2023-03-14T12:37:12;7.27;55.60
71396;DHT22;59888;55.814;37.132;2023-03-14T12:50:07;7.53;54.91
71396;DHT22;59888;55.814;37.132;2023-03-14T12:52:36;7.55;55.48
71396;DHT22;59888;55.814;37.132;2023-03-14T13:00:02;7.59;54.44
71396;DHT22;59888;55.814;37.132;2023-03-14T13:02:38;7.58;54.94
71396;DHT22;59888;55.814;37.132;2023-03-14T13:05:14;7.60;55.57
71396;DHT22;59888;55.814;37.132;2023-03-14T13:12:38;7.61;54.91
71396;DHT22;59888;55.814;37.132;2023-03-14T13:15:13;7.63;55.81
71396;DHT22;59888;55.814;37.132;2023-03-14T13:17:40;7.57;55.01
71396;DHT22;59888;55.814;37.132;2023-03-14T13:20:11;7.56;55.78
71396;DHT22;59888;55.814;37.132;2023-03-14T13:22:37;7.54;54.98
71396;DHT22;59888;55.814;37.132;2023-03-14T13:25:05;7.54;54.78
71396;DHT22;59888;55.814;37.132;2023-03-14T13:27:32;7.50;54.78
71396;DHT22;59888;55.814;37.132;2023-03-14T13:29:59;7.50;54.54
71396;DHT22;59888;55.814;37.132;2023-03-14T13:32:29;7.54;54.97
71396;DHT22;59888;55.814;37.132;2023-03-14T13:34:56;7.52;54.68
71396;DHT22;59888;55.814;37.132;2023-03-14T13:37:23;7.48;54.09
71396;DHT22;59888;55.814;37.132;2023-03-14T13:39:52;7.48;54.44
71396;DHT22;59888;55.814;37.132;2023-03-14T13:42:18;7.53;55.44
71396;DHT22;59888;55.814;37.132;2023-03-14T13:44:44;7.49;55.35
71396;DHT22;59888;55.814;37.132;2023-03-14T13:47:13;7.49;55.44
71396;DHT22;59888;55.814;37.132;2023-03-14T13:49:40;7.48;54.60
71396;DHT22;59888;55.814;37.132;2023-03-14T13:52:21;7.48;54.77
71396;DHT22;59888;55.814;37.132;2023-03-14T13:54:47;7.43;54.84
71396;DHT22;59888;55.814;37.132;2023-03-14T13:57:13;7.43;54.50
71396;DHT22;59888;55.814;37.132;2023-03-14T13:59:38;7.43;53.50
71396;DHT22;59888;55.814;37.132;2023-03-14T14:02:04;7.43;53.66
71396;DHT22;59888;55.814;37.132;2023-03-14T14:04:32;7.44;54.29
71396;DHT22;59888;55.814;37.132;2023-03-14T14:06:59;7.43;53.53
71396;DHT22;59888;55.814;37.132;2023-03-14T14:10:00;7.42;54.13
71396;DHT22;59888;55.814;37.132;2023-03-14T14:12:27;7.44;54.48
71396;DHT22;59888;55.814;37.132;2023-03-14T14:15:02;7.42;54.48
71396;DHT22;59888;55.814;37.132;2023-03-14T14:17:41;7.45;54.96
71396;DHT22;59888;55.814;37.132;2023-03-14T14:20:19;7.43;54.55
71396;DHT22;59888;55.814;37.132;2023-03-14T14:22:45;7.44;54.59
71396;DHT22;59888;55.814;37.132;2023-03-14T14:25:13;7.42;54.07
71396;DHT22;59888;55.814;37.132;2023-03-14T14:27:41;7.41;54.76
71396;DHT22;59888;55.814;37.132;2023-03-14T14:32:44;7.38;54.01
71396;DHT22;59888;55.814;37.132;2023-03-14T14:35:10;7.38;54.14
71396;DHT22;59888;55.814;37.132;2023-03-14T14:37:47;7.38;54.52
71396;DHT22;59888;55.814;37.132;2023-03-14T14:40:16;7.38;53.99
71396;DHT22;59888;55.814;37.132;2023-03-14T14:42:42;7.39;54.94
71396;DHT22;59888;55.814;37.132;2023-03-14T14:45:13;7.37;54.29
71396;DHT22;59888;55.814;37.132;2023-03-14T14:47:47;7.34;54.05
71396;DHT22;59888;55.814;37.132;2023-03-14T14:55:51;7.31;53.78
71396;DHT22;59888;55.814;37.132;2023-03-14T14:58:33;7.32;53.99
71396;DHT22;59888;55.814;37.132;2023-03-14T15:01:04;7.28;53.56
71396;DHT22;59888;55.814;37.132;2023-03-14T15:03:31;7.30;53.68
71396;DHT22;59888;55.814;37.132;2023-03-14T15:05:57;7.30;54.64
71396;DHT22;59888;55.814;37.132;2023-03-14T15:08:24;7.29;53.65
71396;DHT22;59888;55.814;37.132;2023-03-14T15:10:49;7.28;53.59
71396;DHT22;59888;55.814;37.132;2023-03-14T15:13:16;7.27;53.48
71396;DHT22;59888;55.814;37.132;2023-03-14T15:15:42;7.25;53.86
71396;DHT22;59888;55.814;37.132;2023-03-14T15:18:18;7.23;52.99
71396;DHT22;59888;55.814;37.132;2023-03-14T15:20:47;7.23;53.75
71396;DHT22;59888;55.814;37.132;2023-03-14T15:23:13;7.25;53.43
71396;DHT22;59888;55.814;37.132;2023-03-14T15:25:39;7.26;54.48
71396;DHT22;59888;55.814;37.132;2023-03-14T15:28:10;7.20;52.91
71396;DHT22;59888;55.814;37.132;2023-03-14T15:30:37;7.19;53.73
71396;DHT22;59888;55.814;37.132;2023-03-14T15:33:04;7.18;53.63
71396;DHT22;59888;55.814;37.132;2023-03-14T15:35:29;7.20;53.98
71396;DHT22;59888;55.814;37.132;2023-03-14T15:37:55;7.20;53.49
71396;DHT22;59888;55.814;37.132;2023-03-14T15:40:26;7.18;53.90
71396;DHT22;59888;55.814;37.132;2023-03-14T15:42:52;7.18;53.54
71396;DHT22;59888;55.814;37.132;2023-03-14T15:45:18;7.18;53.62
71396;DHT22;59888;55.814;37.132;2023-03-14T15:47:43;7.19;53.49
71396;DHT22;59888;55.814;37.132;2023-03-14T15:50:09;7.18;53.23
71396;DHT22;59888;55.814;37.132;2023-03-14T15:52:35;7.18;53.30
71396;DHT22;59888;55.814;37.132;2023-03-14T15:55:01;7.19;53.92
71396;DHT22;59888;55.814;37.132;2023-03-14T15:57:28;7.16;54.39
71396;DHT22;59888;55.814;37.132;2023-03-14T15:59:54;7.08;53.17
71396;DHT22;59888;55.814;37.132;2023-03-14T16:02:19;7.02;54.01
71396;DHT22;59888;55.814;37.132;2023-03-14T16:04:45;6.97;53.50
71396;DHT22;59888;55.814;37.132;2023-03-14T16:07:12;6.93;53.21
71396;DHT22;59888;55.814;37.132;2023-03-14T16:09:37;6.88;53.13
71396;DHT22;59888;55.814;37.132;2023-03-14T16:12:03;6.83;53.14
71396;DHT22;59888;55.814;37.132;2023-03-14T16:14:30;6.81;53.84
71396;DHT22;59888;55.814;37.132;2023-03-14T16:16:56;6.76;53.72
71396;DHT22;59888;55.814;37.132;2023-03-14T16:19:24;6.71;53.68
71396;DHT22;59888;55.814;37.132;2023-03-14T16:21:51;6.68;53.45
71396;DHT22;59888;55.814;37.132;2023-03-14T16:24:17;6.65;53.82
71396;DHT22;59888;55.814;37.132;2023-03-14T16:26:43;6.66;53.84
71396;DHT22;59888;55.814;37.132;2023-03-14T16:29:09;6.66;54.02
71396;DHT22;59888;55.814;37.132;2023-03-14T16:31:35;6.64;54.22
71396;DHT22;59888;55.814;37.132;2023-03-14T16:34:10;6.63;53.68
71396;DHT22;59888;55.814;37.132;2023-03-14T16:36:36;6.61;54.17
71396;DHT22;59888;55.814;37.132;2023-03-14T16:39:02;6.64;53.83
71396;DHT22;59888;55.814;37.132;2023-03-14T16:41:28;6.63;53.30
71396;DHT22;59888;55.814;37.132;2023-03-14T16:43:59;6.64;53.40
71396;DHT22;59888;55.814;37.132;2023-03-14T16:46:26;6.66;53.78
71396;DHT22;59888;55.814;37.132;2023-03-14T16:48:53;6.69;53.95
71396;DHT22;59888;55.814;37.132;2023-03-14T16:51:19;6.69;53.20
71396;DHT22;59888;55.814;37.132;2023-03-14T16:53:46;6.69;53.84
71396;DHT22;59888;55.814;37.132;2023-03-14T16:56:12;6.67;52.54
71396;DHT22;59888;55.814;37.132;2023-03-14T16:58:38;6.66;53.43
71396;DHT22;59888;55.814;37.132;2023-03-14T17:01:08;6.65;53.30